Time;durP1;ratioP1;P1;durP2;ratioP2;P2;SDS_P1;SDS_P2;PMS_P1;PMS_P2;Temp;Humidity;BMP_temperature;BMP_pressure;BME280_temperature;BME280_humidity;BME280_pressure;Samples;Min_cycle;Max_cycle;Signal;HPM_P1;HPM_P2
2023/11/06 00:01:04;;;;;;;0.10;0.10;;;;;;;8.90;73.60;98290.22;7354425;19;20018;-57
2023/11/06 00:03:30;;;;;;;0.10;0.10;;;;;;;8.96;73.32;98308.09;7355314;19;20027;-58
2023/11/06 00:05:55;;;;;;;0.10;0.10;;;;;;;8.96;73.51;98320.28;7354734;19;20035;-57
2023/11/06 00:08:21;;;;;;;0.10;0.10;;;;;;;8.94;73.59;98309.13;7353552;19;20347;-57
2023/11/06 00:10:46;;;;;;;0.00;0.00;;;;;;;8.92;73.35;98311.81;7352936;19;20010;-57
2023/11/06 00:13:11;;;;;;;0.00;0.00;;;;;;;8.90;73.58;98303.25;7345027;19;20009;-57
2023/11/06 00:15:37;;;;;;;0.10;0.10;;;;;;;8.89;73.50;98311.97;7359857;19;20367;-57
2023/11/06 00:18:03;;;;;;;0.00;0.00;;;;;;;8.87;73.33;98310.38;7358995;19;20014;-57
2023/11/06 00:20:28;;;;;;;0.00;0.00;;;;;;;8.88;73.52;98318.13;7336240;19;21224;-58
2023/11/06 00:22:53;;;;;;;0.10;0.10;;;;;;;8.83;73.76;98314.91;7350760;19;20011;-56
2023/11/06 00:25:19;;;;;;;0.10;0.10;;;;;;;8.82;73.66;98321.06;7352626;19;20469;-58
2023/11/06 00:27:44;;;;;;;0.10;0.10;;;;;;;8.82;73.39;98315.84;7350789;19;20032;-57
2023/11/06 00:30:10;;;;;;;0.00;0.00;;;;;;;8.77;73.57;98317.84;7353170;19;20376;-57
2023/11/06 00:32:35;;;;;;;0.10;0.10;;;;;;;8.76;73.90;98316.16;7353478;19;20746;-57
2023/11/06 00:35:01;;;;;;;0.10;0.10;;;;;;;8.75;73.65;98320.53;7346239;19;20014;-57
2023/11/06 00:37:26;;;;;;;0.10;0.10;;;;;;;8.76;73.95;98327.41;7358187;19;20011;-56
2023/11/06 00:39:51;;;;;;;0.10;0.10;;;;;;;8.75;73.74;98336.13;7358195;19;20020;-56
2023/11/06 00:42:17;;;;;;;0.03;0.03;;;;;;;8.72;73.75;98328.50;7363100;19;20014;-57
2023/11/06 00:44:43;;;;;;;0.00;0.00;;;;;;;8.73;73.76;98327.56;7363251;19;20015;-58
2023/11/06 00:47:08;;;;;;;0.05;0.05;;;;;;;8.70;73.83;98326.91;7365142;19;20102;-58
2023/11/06 00:49:33;;;;;;;0.10;0.10;;;;;;;8.72;73.86;98325.06;7356417;19;20010;-57
2023/11/06 00:51:59;;;;;;;0.08;0.08;;;;;;;8.68;73.47;98326.16;7362390;19;20014;-56
2023/11/06 00:54:24;;;;;;;0.10;0.10;;;;;;;8.68;73.95;98323.53;7360006;19;20018;-56
2023/11/06 00:56:50;;;;;;;0.10;0.10;;;;;;;8.35;73.54;98274.94;7362189;19;20017;-58
2023/11/06 00:59:20;;;;;;;0.08;0.08;;;;;;;8.66;73.89;98330.56;7359416;19;20021;-56
2023/11/06 01:01:45;;;;;;;0.00;0.00;;;;;;;8.68;74.23;98341.75;7354244;19;20849;-57
2023/11/06 01:04:11;;;;;;;0.10;0.10;;;;;;;8.62;73.74;98334.25;7358084;19;20014;-57
2023/11/06 01:06:37;;;;;;;0.10;0.10;;;;;;;8.65;73.92;98332.34;7363264;19;19999;-57
2023/11/06 01:09:02;;;;;;;0.10;0.10;;;;;;;8.65;73.91;98336.69;7360713;19;20002;-56
2023/11/06 01:11:28;;;;;;;0.10;0.10;;;;;;;8.62;74.08;98336.84;7357739;19;20017;-58
2023/11/06 01:13:53;;;;;;;0.10;0.10;;;;;;;8.64;74.11;98342.84;7363420;19;20077;-57
2023/11/06 01:16:19;;;;;;;0.10;0.10;;;;;;;8.60;73.80;98338.72;7356633;19;20025;-57
2023/11/06 01:18:47;;;;;;;0.10;0.10;;;;;;;8.62;73.96;98349.84;7364340;19;20090;-57
2023/11/06 01:21:12;;;;;;;0.10;0.10;;;;;;;8.58;74.16;98339.63;7353889;19;20010;-56
2023/11/06 01:23:38;;;;;;;0.00;0.00;;;;;;;8.53;74.15;98333.00;7358409;19;20093;-55
2023/11/06 01:26:04;;;;;;;0.10;0.10;;;;;;;8.57;73.84;98340.56;7362051;19;19999;-58
2023/11/06 01:28:29;;;;;;;0.05;0.05;;;;;;;8.55;74.16;98344.97;7371135;19;20025;-58
2023/11/06 01:30:55;;;;;;;0.00;0.00;;;;;;;8.38;74.34;98321.63;7356448;19;20795;-58
2023/11/06 01:33:20;;;;;;;0.10;0.10;;;;;;;8.55;73.84;98355.38;7363647;19;20011;-58
2023/11/06 01:35:45;;;;;;;0.10;0.10;;;;;;;8.51;73.95;98353.84;7358395;19;19999;-58
2023/11/06 01:38:11;;;;;;;0.10;0.10;;;;;;;8.51;74.05;98348.66;7359771;19;20003;-55
2023/11/06 01:40:36;;;;;;;0.10;0.10;;;;;;;8.49;74.23;98347.91;7351981;19;20558;-57
2023/11/06 01:43:06;;;;;;;0.10;0.10;;;;;;;8.54;74.02;98360.69;7363617;19;20038;-57
2023/11/06 01:45:35;;;;;;;0.10;0.10;;;;;;;8.51;74.26;98363.44;7367261;19;20010;-57
2023/11/06 01:48:05;;;;;;;0.10;0.10;;;;;;;8.52;73.91;98367.72;7359484;19;20489;-58
2023/11/06 01:50:34;;;;;;;0.10;0.10;;;;;;;8.48;74.13;98364.44;7364108;19;20010;-57
2023/11/06 01:53:03;;;;;;;0.10;0.10;;;;;;;8.47;74.43;98373.16;7361403;19;20034;-58
2023/11/06 01:55:30;;;;;;;0.00;0.00;;;;;;;8.41;74.32;98365.66;7361891;19;20006;-56
2023/11/06 01:57:56;;;;;;;0.00;0.00;;;;;;;8.44;74.11;98375.91;7359207;19;20013;-57
2023/11/06 02:00:23;;;;;;;0.03;0.03;;;;;;;8.45;74.18;98382.78;7360078;19;19994;-58
2023/11/06 02:02:49;;;;;;;;;;;;;;;8.47;74.00;98388.78;7355802;19;20482;-57
2023/11/06 02:05:17;;;;;;;0.10;0.10;;;;;;;8.36;74.34;98375.44;7359234;19;19917;-57
2023/11/06 02:07:42;;;;;;;;;;;;;;;8.46;73.90;98389.66;7356315;19;20671;-57
2023/11/06 02:10:08;;;;;;;0.10;0.10;;;;;;;8.42;74.04;98395.97;7363175;19;19914;-58
2023/11/06 02:12:34;;;;;;;0.10;0.10;;;;;;;8.39;73.92;98396.13;7356658;19;20717;-58
2023/11/06 02:14:59;;;;;;;0.10;0.10;;;;;;;8.26;74.35;98387.22;7364848;19;20744;-56
2023/11/06 02:17:27;;;;;;;0.00;0.00;;;;;;;8.32;73.95;98397.31;7359387;19;20006;-56
2023/11/06 02:19:53;;;;;;;0.10;0.10;;;;;;;8.37;74.30;98408.38;7363590;19;20015;-58
2023/11/06 02:22:19;;;;;;;0.00;0.00;;;;;;;8.23;74.42;98390.81;7360854;19;20465;-57
2023/11/06 02:24:49;;;;;;;0.00;0.00;;;;;;;8.36;74.14;98417.06;7361801;19;20007;-57
2023/11/06 02:27:18;;;;;;;0.10;0.10;;;;;;;8.33;74.34;98407.63;7353297;19;20017;-58
2023/11/06 02:29:44;;;;;;;0.10;0.10;;;;;;;8.32;74.25;98416.38;7355843;19;20018;-58
2023/11/06 02:32:10;;;;;;;0.00;0.00;;;;;;;8.33;74.60;98417.19;7354044;19;20014;-56
2023/11/06 02:34:40;;;;;;;0.10;0.10;;;;;;;8.35;74.30;98420.56;7362147;19;20022;-57
2023/11/06 02:37:06;;;;;;;0.10;0.10;;;;;;;8.32;74.40;98425.94;7346276;19;20010;-57
2023/11/06 02:39:34;;;;;;;0.10;0.10;;;;;;;8.32;74.69;98431.13;7362722;19;20398;-57
2023/11/06 02:42:01;;;;;;;0.10;0.10;;;;;;;8.31;74.64;98427.69;7356828;19;20003;-58
2023/11/06 02:44:27;;;;;;;0.10;0.10;;;;;;;8.30;74.46;98433.78;7358753;19;20741;-57
2023/11/06 02:46:52;;;;;;;0.10;0.10;;;;;;;8.26;74.55;98423.59;7353677;19;20010;-58
2023/11/06 02:49:18;;;;;;;0.10;0.10;;;;;;;8.22;74.48;98417.75;7356594;19;20360;-56
2023/11/06 02:51:43;;;;;;;0.10;0.10;;;;;;;8.29;74.27;98437.31;7364155;19;20665;-56
2023/11/06 02:54:08;;;;;;;0.10;0.10;;;;;;;8.27;74.46;98433.13;7353342;19;20015;-56
2023/11/06 02:56:37;;;;;;;0.05;0.05;;;;;;;8.25;74.44;98440.13;7354546;19;20844;-57
2023/11/06 02:59:07;;;;;;;0.10;0.10;;;;;;;8.30;74.36;98443.34;7351647;19;20017;-56
2023/11/06 03:01:33;;;;;;;0.10;0.10;;;;;;;8.28;74.65;98437.38;7355843;19;20018;-57
2023/11/06 03:03:58;;;;;;;0.00;0.00;;;;;;;8.05;74.64;98402.94;7358644;19;20011;-56
2023/11/06 03:06:28;;;;;;;0.10;0.10;;;;;;;8.29;74.43;98439.06;7357237;19;20006;-58
2023/11/06 03:08:54;;;;;;;0.10;0.10;;;;;;;8.28;74.70;98440.00;7361555;19;20014;-57
2023/11/06 03:11:20;;;;;;;0.10;0.10;;;;;;;8.27;74.84;98443.50;7362509;19;20923;-58
2023/11/06 03:13:46;;;;;;;0.10;0.10;;;;;;;8.26;74.70;98444.41;7360715;19;20014;-58
2023/11/06 03:16:11;;;;;;;0.10;0.10;;;;;;;8.26;74.75;98442.69;7360200;19;20380;-58
2023/11/06 03:18:36;;;;;;;0.00;0.00;;;;;;;8.25;74.91;98437.53;7361156;19;20025;-57
2023/11/06 03:21:03;;;;;;;0.10;0.10;;;;;;;8.26;74.85;98442.69;7360325;19;20013;-56
2023/11/06 03:23:30;;;;;;;0.10;0.10;;;;;;;8.26;74.91;98441.81;7358593;19;20506;-56
2023/11/06 03:25:55;;;;;;;0.05;0.05;;;;;;;8.27;74.74;98454.75;7361707;19;20022;-58
2023/11/06 03:28:21;;;;;;;0.10;0.10;;;;;;;8.23;74.93;98441.97;7354691;19;20427;-58
2023/11/06 03:30:46;;;;;;;0.00;0.00;;;;;;;8.28;75.10;98450.38;7352594;19;20052;-57
2023/11/06 03:33:12;;;;;;;0.08;0.08;;;;;;;8.13;74.87;98428.59;7359248;19;20011;-56
2023/11/06 03:35:37;;;;;;;0.03;0.03;;;;;;;8.21;74.70;98443.78;7360571;19;20010;-57
2023/11/06 03:38:02;;;;;;;0.05;0.05;;;;;;;8.24;75.15;98443.66;7351318;19;20010;-57
2023/11/06 03:40:28;;;;;;;0.03;0.03;;;;;;;8.28;74.83;98455.59;7355669;19;20011;-57
2023/11/06 03:42:54;;;;;;;0.00;0.00;;;;;;;8.15;74.85;98428.50;7357103;19;20018;-56
2023/11/06 03:45:19;;;;;;;0.10;0.10;;;;;;;8.30;75.06;98456.34;7362362;19;20011;-57
2023/11/06 03:47:45;;;;;;;0.00;0.00;;;;;;;8.23;75.18;98448.00;7356305;19;20027;-57
2023/11/06 03:50:10;;;;;;;0.00;0.00;;;;;;;8.29;74.98;98462.47;7359135;19;20019;-57
2023/11/06 03:52:36;;;;;;;0.10;0.10;;;;;;;8.30;74.89;98469.34;7352408;19;20014;-58
2023/11/06 03:55:03;;;;;;;0.10;0.10;;;;;;;8.28;75.07;98466.00;7362537;19;20015;-57
2023/11/06 03:57:28;;;;;;;0.08;0.08;;;;;;;8.22;75.09;98466.28;7351881;19;20019;-58
2023/11/06 03:59:54;;;;;;;0.10;0.10;;;;;;;8.28;75.06;98477.22;7348616;19;20030;-57
2023/11/06 04:02:19;;;;;;;0.10;0.10;;;;;;;8.32;75.29;98493.53;7357963;19;20483;-57
2023/11/06 04:04:46;;;;;;;0.10;0.10;;;;;;;8.33;74.93;98487.41;7354915;19;20078;-58
2023/11/06 04:07:12;;;;;;;0.05;0.05;;;;;;;8.31;75.24;98486.63;7355229;19;20697;-57
2023/11/06 04:09:37;;;;;;;0.10;0.10;;;;;;;8.31;75.01;98497.03;7357810;19;20037;-57
2023/11/06 04:12:03;;;;;;;0.10;0.10;;;;;;;8.32;75.19;98496.97;7363940;19;20026;-58
2023/11/06 04:14:28;;;;;;;0.10;0.10;;;;;;;8.34;75.04;98496.88;7362515;19;20044;-57
2023/11/06 04:16:54;;;;;;;0.10;0.10;;;;;;;8.35;74.91;98505.53;7359093;19;21240;-55
2023/11/06 04:19:19;;;;;;;0.08;0.08;;;;;;;8.31;75.22;98492.69;7357660;19;20015;-57
2023/11/06 04:21:45;;;;;;;0.10;0.10;;;;;;;8.30;75.06;98500.53;7367260;19;20078;-57
2023/11/06 04:24:10;;;;;;;0.10;0.10;;;;;;;8.33;75.00;98506.44;7369664;19;20011;-56
2023/11/06 04:26:35;;;;;;;0.10;0.10;;;;;;;8.32;75.06;98504.78;7365117;19;20078;-57
2023/11/06 04:29:01;;;;;;;0.10;0.10;;;;;;;8.21;75.23;98495.78;7358226;19;20620;-58
2023/11/06 04:31:26;;;;;;;0.10;0.10;;;;;;;8.23;74.95;98496.56;7368748;19;20015;-57
2023/11/06 04:33:52;;;;;;;0.10;0.10;;;;;;;8.31;74.97;98517.81;7363060;19;20015;-57
2023/11/06 04:36:17;;;;;;;0.03;0.03;;;;;;;8.29;75.31;98522.28;7369364;19;20010;-57
2023/11/06 04:38:42;;;;;;;0.10;0.10;;;;;;;8.26;75.29;98520.69;7357653;19;20023;-58
2023/11/06 04:41:08;;;;;;;0.00;0.00;;;;;;;8.26;75.19;98525.88;7372183;19;20034;-57
2023/11/06 04:43:34;;;;;;;0.03;0.03;;;;;;;8.23;74.73;98519.97;7365454;19;20827;-58
2023/11/06 04:45:59;;;;;;;0.00;0.00;;;;;;;8.25;74.76;98531.13;7371007;19;20020;-58
2023/11/06 04:48:25;;;;;;;0.08;0.08;;;;;;;8.21;74.86;98534.78;7369047;19;20011;-57
2023/11/06 04:50:50;;;;;;;0.05;0.05;;;;;;;8.22;74.82;98536.50;7368660;19;20027;-55
2023/11/06 04:53:15;;;;;;;0.10;0.10;;;;;;;8.18;74.65;98534.94;7367757;19;20473;-59
2023/11/06 04:55:41;;;;;;;0.10;0.10;;;;;;;8.12;75.23;98536.09;7369102;19;20436;-58
2023/11/06 04:58:06;;;;;;;0.00;0.00;;;;;;;8.17;74.80;98534.13;7367004;19;20014;-56
2023/11/06 05:00:32;;;;;;;0.10;0.10;;;;;;;8.16;74.85;98558.44;7364199;19;20006;-58
2023/11/06 05:02:57;;;;;;;0.10;0.10;;;;;;;8.15;75.06;98548.09;7358613;19;20018;-57
2023/11/06 05:05:22;;;;;;;0.10;0.10;;;;;;;8.09;74.99;98543.19;7368771;19;20082;-56
2023/11/06 05:07:48;;;;;;;0.00;0.00;;;;;;;8.14;75.11;98552.44;7368210;19;20044;-58
2023/11/06 05:10:13;;;;;;;0.10;0.10;;;;;;;8.13;75.15;98560.31;7365780;19;20503;-57
2023/11/06 05:12:39;;;;;;;0.00;0.00;;;;;;;8.12;75.14;98558.66;7366216;19;20019;-58
2023/11/06 05:15:05;;;;;;;0.00;0.00;;;;;;;8.14;75.21;98554.19;7366834;19;20018;-55
2023/11/06 05:17:30;;;;;;;0.10;0.10;;;;;;;7.61;75.34;98464.84;7367802;19;20006;-56
2023/11/06 05:19:56;;;;;;;0.10;0.10;;;;;;;8.14;75.30;98562.00;7363584;19;20486;-57
2023/11/06 05:22:22;;;;;;;0.03;0.03;;;;;;;8.12;75.13;98566.44;7366928;19;20010;-58
2023/11/06 05:24:47;;;;;;;0.00;0.00;;;;;;;8.06;75.40;98562.38;7364081;19;20021;-58
2023/11/06 05:27:13;;;;;;;0.03;0.03;;;;;;;8.10;75.19;98565.66;7364902;19;20011;-57
2023/11/06 05:29:38;;;;;;;0.10;0.10;;;;;;;8.16;75.12;98570.56;7362151;19;20023;-58
2023/11/06 05:32:05;;;;;;;0.00;0.00;;;;;;;8.10;75.15;98570.84;7366821;19;20011;-58
2023/11/06 05:34:30;;;;;;;0.10;0.10;;;;;;;8.16;75.25;98575.75;7364620;19;20011;-58
2023/11/06 05:36:56;;;;;;;0.10;0.10;;;;;;;8.12;75.42;98569.88;7367961;19;20013;-56
2023/11/06 05:39:21;;;;;;;0.00;0.00;;;;;;;8.15;75.33;98571.47;7357000;19;20759;-58
2023/11/06 05:41:50;;;;;;;0.10;0.10;;;;;;;8.02;75.66;98551.28;7366572;19;20057;-58
2023/11/06 05:44:16;;;;;;;0.08;0.08;;;;;;;8.18;75.34;98581.75;7364531;19;20042;-57
2023/11/06 05:46:43;;;;;;;0.00;0.00;;;;;;;8.10;75.47;98565.66;7366337;19;20056;-57
2023/11/06 05:49:08;;;;;;;0.00;0.00;;;;;;;8.14;75.23;98572.41;7366475;19;20367;-57
2023/11/06 05:51:34;;;;;;;0.00;0.00;;;;;;;8.19;75.13;98581.66;7371528;19;20015;-56
2023/11/06 05:53:59;;;;;;;0.00;0.00;;;;;;;8.18;75.04;98584.34;7364678;19;20453;-58
2023/11/06 05:56:25;;;;;;;0.08;0.08;;;;;;;8.23;75.37;98597.97;7364105;19;20021;-58
2023/11/06 05:58:50;;;;;;;0.10;0.10;;;;;;;8.22;75.18;98596.28;7359876;19;20006;-58
2023/11/06 06:01:16;;;;;;;0.00;0.00;;;;;;;8.22;75.25;98606.69;7366203;19;20015;-58
2023/11/06 06:03:42;;;;;;;0.10;0.10;;;;;;;8.21;75.54;98595.44;7364171;19;20078;-56
2023/11/06 06:06:09;;;;;;;0.00;0.00;;;;;;;8.19;75.58;98596.44;7367497;19;20465;-58
2023/11/06 06:08:35;;;;;;;0.10;0.10;;;;;;;8.24;75.08;98605.69;7364030;19;19995;-56
2023/11/06 06:11:00;;;;;;;0.00;0.00;;;;;;;8.23;75.41;98610.97;7366197;19;20043;-57
2023/11/06 06:13:26;;;;;;;0.00;0.00;;;;;;;8.22;75.32;98607.53;7356038;19;20426;-58
2023/11/06 06:15:52;;;;;;;0.10;0.10;;;;;;;8.21;75.49;98598.06;7363006;19;20024;-58
2023/11/06 06:18:17;;;;;;;0.10;0.10;;;;;;;8.18;75.39;98608.59;7364980;19;20475;-58
2023/11/06 06:20:43;;;;;;;0.10;0.10;;;;;;;8.24;75.58;98610.06;7366420;19;20010;-58
2023/11/06 06:23:09;;;;;;;0.10;0.10;;;;;;;8.23;75.42;98618.78;7365633;19;20011;-57
2023/11/06 06:25:35;;;;;;;0.10;0.10;;;;;;;8.19;75.31;98607.66;7365451;19;19998;-58
2023/11/06 06:28:01;;;;;;;0.08;0.08;;;;;;;8.23;75.54;98618.78;7364205;19;20011;-57
2023/11/06 06:30:26;;;;;;;0.10;0.10;;;;;;;8.22;75.34;98622.28;7362883;19;20015;-58
2023/11/06 06:32:52;;;;;;;0.00;0.00;;;;;;;8.17;75.51;98616.47;7365877;19;20003;-58
2023/11/06 06:35:17;;;;;;;0.00;0.00;;;;;;;8.20;75.08;98629.31;7361916;19;20035;-57
2023/11/06 06:37:43;;;;;;;0.10;0.10;;;;;;;8.21;75.44;98633.59;7368839;19;20042;-56
2023/11/06 06:40:10;;;;;;;0.03;0.03;;;;;;;8.21;75.63;98641.38;7370523;19;20006;-57
2023/11/06 06:42:36;;;;;;;0.10;0.10;;;;;;;8.20;75.04;98650.94;7367566;19;20043;-58
2023/11/06 06:45:04;;;;;;;0.05;0.05;;;;;;;8.18;75.13;98646.75;7360401;19;20007;-58
2023/11/06 06:47:29;;;;;;;;;;;;;;;8.22;74.93;98653.50;7369534;19;20466;-57
2023/11/06 06:49:55;;;;;;;0.10;0.10;;;;;;;8.17;75.23;98660.66;7373465;19;19941;-56
2023/11/06 06:52:20;;;;;;;0.00;0.00;;;;;;;8.18;74.92;98663.19;7367516;19;20537;-56
2023/11/06 06:54:45;;;;;;;0.10;0.10;;;;;;;8.16;75.00;98657.22;7363300;19;20078;-58
2023/11/06 06:57:11;;;;;;;0.10;0.10;;;;;;;8.15;75.53;98665.91;7363773;19;20034;-57
2023/11/06 06:59:36;;;;;;;0.10;0.10;;;;;;;8.14;75.07;98672.03;7360794;19;20482;-58
2023/11/06 07:02:02;;;;;;;0.10;0.10;;;;;;;8.13;75.55;98675.53;7351579;19;20014;-58
2023/11/06 07:04:27;;;;;;;0.10;0.10;;;;;;;8.02;75.17;98662.19;7365964;19;20022;-57
2023/11/06 07:06:53;;;;;;;0.10;0.10;;;;;;;8.11;75.41;98687.78;7359215;19;20019;-57
2023/11/06 07:09:18;;;;;;;0.00;0.00;;;;;;;8.13;75.42;98695.50;7366268;19;20101;-56
2023/11/06 07:11:44;;;;;;;0.10;0.10;;;;;;;7.99;75.46;98678.75;7356469;19;20024;-56
2023/11/06 07:14:09;;;;;;;0.10;0.10;;;;;;;8.09;75.63;98693.94;7361956;19;20026;-57
2023/11/06 07:16:34;;;;;;;0.00;0.00;;;;;;;8.07;75.58;98694.03;7362656;19;20106;-57
2023/11/06 07:19:00;;;;;;;0.00;0.00;;;;;;;7.97;75.68;98679.75;7358955;19;20014;-58
2023/11/06 07:21:25;;;;;;;0.10;0.10;;;;;;;8.01;75.46;98692.53;7362710;19;20027;-58
2023/11/06 07:23:51;;;;;;;0.10;0.10;;;;;;;8.12;75.40;98706.81;7359079;19;20024;-57
2023/11/06 07:26:16;;;;;;;0.10;0.10;;;;;;;8.13;75.43;98706.75;7365278;19;20365;-58
2023/11/06 07:28:42;;;;;;;0.10;0.10;;;;;;;8.13;75.83;98700.69;7352952;19;20023;-57
2023/11/06 07:31:08;;;;;;;0.10;0.10;;;;;;;8.18;75.82;98714.34;7364853;19;20027;-58
2023/11/06 07:33:33;;;;;;;0.10;0.10;;;;;;;8.23;76.15;98717.56;7363374;19;20664;-58
2023/11/06 07:35:59;;;;;;;0.00;0.00;;;;;;;8.06;76.19;98682.78;7358607;19;20070;-58
2023/11/06 07:38:24;;;;;;;0.00;0.00;;;;;;;8.31;75.95;98720.66;7365739;19;20474;-57
2023/11/06 07:40:50;;;;;;;0.10;0.10;;;;;;;8.37;76.03;98733.44;7361633;19;20062;-54
2023/11/06 07:43:15;;;;;;;0.08;0.08;;;;;;;8.43;76.47;98730.56;7355964;19;20011;-57
2023/11/06 07:45:41;;;;;;;0.10;0.10;;;;;;;8.47;76.51;98729.50;7355290;19;20842;-57
2023/11/06 07:48:07;;;;;;;0.10;0.10;;;;;;;8.57;76.06;98716.94;7362789;19;21133;-57
2023/11/06 07:50:33;;;;;;;0.08;0.08;;;;;;;8.63;76.27;98742.66;7362163;19;20039;-58
2023/11/06 07:52:59;;;;;;;0.08;0.08;;;;;;;8.67;76.05;98739.00;7350524;19;20021;-56
2023/11/06 07:55:24;;;;;;;0.10;0.10;;;;;;;8.58;76.18;98719.44;7363976;19;20082;-59
2023/11/06 07:57:50;;;;;;;0.10;0.10;;;;;;;8.78;76.38;98744.53;7353088;19;20007;-58
2023/11/06 08:00:16;;;;;;;0.00;0.00;;;;;;;8.83;76.28;98744.34;7355265;19;20473;-56
2023/11/06 08:02:41;;;;;;;0.08;0.08;;;;;;;8.71;76.21;98726.66;7357334;19;20656;-58
2023/11/06 08:05:08;;;;;;;0.00;0.00;;;;;;;8.91;75.83;98752.59;7361081;19;20106;-57
2023/11/06 08:07:40;;;;;;;0.00;0.00;;;;;;;8.96;76.18;98755.84;7359934;19;20014;-58
2023/11/06 08:10:07;;;;;;;0.10;0.10;;;;;;;8.99;76.16;98758.31;7359450;19;20015;-58
2023/11/06 08:12:33;;;;;;;0.00;0.00;;;;;;;8.74;75.80;98718.72;7360891;19;20029;-58
2023/11/06 08:14:59;;;;;;;0.05;0.05;;;;;;;9.07;76.17;98769.22;7361909;19;20011;-58
2023/11/06 08:17:24;;;;;;;0.10;0.10;;;;;;;9.09;75.92;98767.38;7361179;19;20006;-57
2023/11/06 08:19:52;;;;;;;0.10;0.10;;;;;;;9.12;75.72;98775.94;7357545;19;20828;-58
2023/11/06 08:22:21;;;;;;;0.10;0.10;;;;;;;9.09;75.70;98774.34;7355471;19;20013;-57
2023/11/06 08:24:47;;;;;;;0.00;0.00;;;;;;;9.07;75.85;98770.94;7361318;19;20018;-58
2023/11/06 08:27:13;;;;;;;0.10;0.10;;;;;;;9.01;75.86;98756.47;7358957;19;20053;-58
2023/11/06 08:29:44;;;;;;;0.08;0.08;;;;;;;9.22;75.55;98787.59;7359867;19;20018;-57
2023/11/06 08:32:13;;;;;;;0.10;0.10;;;;;;;9.30;75.78;98801.13;7359720;19;20015;-59
2023/11/06 08:34:42;;;;;;;0.10;0.10;;;;;;;9.35;75.84;98793.91;7352205;19;20018;-56
2023/11/06 08:37:11;;;;;;;0.10;0.10;;;;;;;9.33;75.68;98796.63;7355048;19;20028;-59
2023/11/06 08:39:43;;;;;;;0.10;0.10;;;;;;;9.09;75.62;98743.94;7362718;19;20010;-58
2023/11/06 08:42:13;;;;;;;0.10;0.10;;;;;;;9.48;75.45;98795.03;7362636;19;20043;-58
2023/11/06 08:44:40;;;;;;;0.10;0.10;;;;;;;9.56;75.97;98807.66;7353494;19;20854;-57
2023/11/06 08:47:09;;;;;;;0.10;0.10;;;;;;;9.24;75.95;98738.91;7333406;19;20962;-55
2023/11/06 08:49:35;;;;;;;0.10;0.10;;;;;;;9.54;75.82;98780.84;7359419;19;20014;-59
2023/11/06 08:52:00;;;;;;;0.10;0.10;;;;;;;9.74;75.40;98813.75;7358011;19;20606;-58
2023/11/06 08:54:26;;;;;;;0.10;0.10;;;;;;;9.82;75.62;98815.03;7357296;19;20047;-57
2023/11/06 08:56:53;;;;;;;0.10;0.10;;;;;;;9.90;76.00;98812.06;7356342;19;20074;-58
2023/11/06 08:59:18;;;;;;;0.10;0.10;;;;;;;9.99;75.76;98816.81;7363016;19;20014;-58
2023/11/06 09:01:51;;;;;;;0.10;0.10;;;;;;;10.18;75.57;98831.50;7361733;19;20026;-57
2023/11/06 09:04:17;;;;;;;0.10;0.10;;;;;;;10.26;75.90;98816.38;7362890;19;20021;-59
2023/11/06 09:06:43;;;;;;;0.10;0.10;;;;;;;10.34;75.37;98819.41;7368308;19;20035;-58
2023/11/06 09:09:09;;;;;;;0.10;0.10;;;;;;;10.42;75.54;98825.06;7367437;19;20002;-57
2023/11/06 09:11:36;;;;;;;0.10;0.10;;;;;;;10.49;75.24;98836.91;7367583;19;20003;-57
2023/11/06 09:14:03;;;;;;;0.10;0.10;;;;;;;10.48;75.46;98824.75;7366903;19;20028;-58
2023/11/06 09:16:30;;;;;;;0.10;0.10;;;;;;;10.64;74.85;98841.31;7366340;19;20479;-59
2023/11/06 09:18:56;;;;;;;0.00;0.00;;;;;;;10.82;75.73;98846.47;7368926;19;20029;-58
2023/11/06 09:21:21;;;;;;;0.10;0.10;;;;;;;11.01;75.51;98847.19;7363943;19;20498;-59
2023/11/06 09:23:46;;;;;;;0.10;0.10;;;;;;;11.25;75.52;98851.97;7359453;19;20018;-57
2023/11/06 09:26:12;;;;;;;0.10;0.10;;;;;;;11.50;75.70;98862.75;7369728;19;20003;-57
2023/11/06 09:28:37;;;;;;;0.10;0.10;;;;;;;11.70;74.79;98862.47;7356989;19;20475;-59
2023/11/06 09:31:04;;;;;;;0.10;0.10;;;;;;;11.88;74.52;98857.19;7362594;19;20047;-59
2023/11/06 09:33:29;;;;;;;0.10;0.10;;;;;;;12.01;74.75;98860.75;7368210;19;20364;-57
2023/11/06 09:35:55;;;;;;;0.10;0.10;;;;;;;12.16;74.23;98853.78;7360001;19;20003;-57
2023/11/06 09:38:20;;;;;;;0.10;0.10;;;;;;;12.22;73.61;98863.06;7364465;19;20014;-58
2023/11/06 09:40:46;;;;;;;0.10;0.10;;;;;;;12.22;72.69;98866.53;7356951;19;20002;-58
2023/11/06 09:43:11;;;;;;;0.10;0.10;;;;;;;12.20;72.13;98877.06;7366801;19;20021;-57
2023/11/06 09:45:37;;;;;;;0.10;0.10;;;;;;;12.19;72.72;98887.63;7364554;19;19999;-57
2023/11/06 09:48:11;;;;;;;0.10;0.10;;;;;;;12.18;72.38;98892.03;7361317;19;20090;-57
2023/11/06 09:50:41;;;;;;;0.10;0.10;;;;;;;12.12;72.28;98892.38;7363508;19;20015;-57
2023/11/06 09:53:08;;;;;;;0.10;0.10;;;;;;;12.00;72.70;98887.00;7371428;19;20043;-58
2023/11/06 09:55:34;;;;;;;0.08;0.08;;;;;;;12.00;72.14;98887.84;7365996;19;20022;-58
2023/11/06 09:58:01;;;;;;;0.10;0.10;;;;;;;11.93;72.35;98894.38;7367806;19;20034;-58
2023/11/06 10:00:27;;;;;;;0.10;0.10;;;;;;;11.87;72.63;98886.88;7358559;19;20584;-58
2023/11/06 10:02:54;;;;;;;0.10;0.10;;;;;;;11.73;71.81;98892.00;7365878;19;20067;-57
2023/11/06 10:05:20;;;;;;;0.10;0.10;;;;;;;11.74;72.24;98891.06;7372072;19;20014;-58
2023/11/06 10:07:54;;;;;;;0.10;0.10;;;;;;;11.72;72.20;98900.78;7374599;19;20038;-59
2023/11/06 10:10:23;;;;;;;0.10;0.10;;;;;;;11.63;72.22;98894.28;7370840;19;20007;-58
2023/11/06 10:13:12;;;;;;;0.10;0.10;;;;;;;11.62;72.70;98897.84;7363279;19;20014;-58
2023/11/06 10:15:37;;;;;;;0.10;0.10;;;;;;;11.54;72.09;98900.88;7367420;19;20021;-57
2023/11/06 10:18:11;;;;;;;0.10;0.10;;;;;;;11.54;72.58;98900.03;7366353;19;20015;-57
2023/11/06 10:20:49;;;;;;;0.10;0.10;;;;;;;11.49;72.40;98908.13;7356504;19;20006;-57
2023/11/06 10:23:30;;;;;;;0.10;0.10;;;;;;;11.51;72.62;98908.06;7364542;19;20711;-57
2023/11/06 10:26:09;;;;;;;0.10;0.10;;;;;;;11.53;73.04;98914.03;7362729;19;20993;-58
2023/11/06 10:28:35;;;;;;;0.10;0.10;;;;;;;11.52;72.85;98923.66;7367113;19;20095;-58
2023/11/06 10:31:00;;;;;;;0.10;0.10;;;;;;;11.52;73.17;98921.03;7358419;19;20062;-59
2023/11/06 10:33:29;;;;;;;0.10;0.10;;;;;;;11.47;72.79;98915.22;7364929;19;20042;-57
2023/11/06 10:35:55;;;;;;;0.10;0.10;;;;;;;11.56;72.79;98919.94;7363048;19;20765;-59
2023/11/06 10:38:33;;;;;;;0.10;0.10;;;;;;;11.83;73.33;98937.66;7365128;19;20747;-58
2023/11/06 10:41:25;;;;;;;0.10;0.10;;;;;;;12.00;73.30;98937.56;7362675;19;20074;-58
2023/11/06 10:43:52;;;;;;;0.10;0.10;;;;;;;12.13;73.32;98946.41;7360152;19;20458;-59
2023/11/06 10:46:19;;;;;;;0.10;0.10;;;;;;;12.33;73.19;98947.03;7365187;19;20013;-58
2023/11/06 10:48:57;;;;;;;0.10;0.10;;;;;;;12.59;73.32;98951.59;7364474;19;20032;-57
2023/11/06 10:51:23;;;;;;;0.10;0.10;;;;;;;12.83;72.63;98946.69;7358484;19;20010;-58
2023/11/06 10:53:50;;;;;;;0.10;0.10;;;;;;;13.11;72.02;98945.00;7360144;19;20022;-58
2023/11/06 10:56:17;;;;;;;0.10;0.10;;;;;;;13.44;72.97;98952.59;7368984;19;20018;-58
2023/11/06 10:58:43;;;;;;;0.10;0.10;;;;;;;13.75;72.47;98946.25;7367969;19;20010;-59
2023/11/06 11:01:10;;;;;;;0.10;0.10;;;;;;;14.10;71.37;98957.13;7370515;19;20026;-58
2023/11/06 11:03:36;;;;;;;0.10;0.10;;;;;;;14.43;71.52;98963.72;7361741;19;20498;-59
2023/11/06 11:06:03;;;;;;;0.10;0.10;;;;;;;14.75;70.32;98970.31;7366046;19;20007;-59
2023/11/06 11:08:31;;;;;;;0.10;0.10;;;;;;;15.14;71.13;98965.06;7362072;19;20014;-58
2023/11/06 11:10:57;;;;;;;0.10;0.10;;;;;;;15.40;68.85;98965.88;7362406;19;20026;-59
2023/11/06 11:13:26;;;;;;;0.10;0.10;;;;;;;15.80;68.68;98969.19;7370580;19;20793;-57
2023/11/06 11:15:51;;;;;;;0.10;0.10;;;;;;;16.10;67.49;98981.91;7371448;19;20038;-59
2023/11/06 11:18:17;;;;;;;0.10;0.10;;;;;;;16.39;66.18;98982.44;7365163;19;20018;-59
2023/11/06 11:20:56;;;;;;;0.10;0.10;;;;;;;16.80;67.74;98975.88;7362132;19;20018;-58
2023/11/06 11:23:46;;;;;;;0.10;0.10;;;;;;;17.07;67.73;98979.03;7353698;19;20014;-58
2023/11/06 11:26:13;;;;;;;0.13;0.13;;;;;;;17.16;64.24;98985.41;7336542;19;20081;-57
2023/11/06 11:28:59;;;;;;;0.20;0.20;;;;;;;17.36;66.94;98989.97;7363465;19;20014;-59
2023/11/06 11:31:36;;;;;;;0.10;0.10;;;;;;;17.36;63.60;98976.78;7363830;19;20018;-57
2023/11/06 11:34:02;;;;;;;0.15;0.15;;;;;;;17.25;61.80;98997.88;7356181;19;20019;-59
2023/11/06 11:36:37;;;;;;;0.08;0.08;;;;;;;17.17;61.22;98992.34;7361800;19;20751;-58
2023/11/06 11:39:14;;;;;;;0.10;0.10;;;;;;;17.09;62.40;98989.50;7356845;19;20688;-59